Lehighton, Pennsylvania
Current Conditions -  °F | °C
As of 5:55 AM on Friday 28 Nov 2014 (Local Time) from KHZL Reporting Station
Light Snow Light Snow  
Wind Chill: 18°   Ceiling: 900
Heat Index: 28°   Visibility: 7mi
Dew Point: 23°   Wind: 13mph
Humidity: 80%   Direction: 310°NW
Pressure: 30.1"   Gusts: 21mph
Location:  40.83°N, 75.71°W
Report Text: KHZL 281055Z AUTO 31011G18KT 7SM -SN BKN009 BKN015 OVC045 M02/M05 A3010 RMK AO2
Loading
Personal Weather Stations






























Interactive Weather Map New forecast layout! Learn more

10-Day Weather Forecast

Advertisements
Track Severe Weather on mobile